sensor_id;sensor_type;location;lat;lon;timestamp;pressure;altitude;pressure_sealevel;temperature;humidity
42621;BME280;28252;53.336;-6.298;2023-03-14T01:04:04;98932.72;;;21.49;90.58
42621;BME280;28252;53.336;-6.298;2023-03-14T01:04:35;98943.56;;;21.49;90.23
42621;BME280;28252;53.336;-6.298;2023-03-14T01:05:12;98931.91;;;21.48;90.62
42621;BME280;28252;53.336;-6.298;2023-03-14T01:05:45;98943.56;;;21.49;90.16
42621;BME280;28252;53.336;-6.298;2023-03-14T01:06:19;98947.34;;;21.48;90.30
42621;BME280;28252;53.336;-6.298;2023-03-14T01:06:53;98942.97;;;21.47;90.22
42621;BME280;28252;53.336;-6.298;2023-03-14T01:07:27;98948.38;;;21.47;90.33
42621;BME280;28252;53.336;-6.298;2023-03-14T01:07:58;98946.72;;;21.45;90.28
42621;BME280;28252;53.336;-6.298;2023-03-14T01:08:31;98951.28;;;21.45;90.27
42621;BME280;28252;53.336;-6.298;2023-03-14T01:09:04;98948.56;;;21.45;90.66
42621;BME280;28252;53.336;-6.298;2023-03-14T01:09:38;98955.88;;;21.44;90.32
42621;BME280;28252;53.336;-6.298;2023-03-14T01:10:13;98958.59;;;21.44;90.66
42621;BME280;28252;53.336;-6.298;2023-03-14T01:10:46;98955.28;;;21.42;90.41
42621;BME280;28252;53.336;-6.298;2023-03-14T01:11:19;98962.31;;;21.43;90.77
42621;BME280;28252;53.336;-6.298;2023-03-14T01:11:52;98966.09;;;21.42;90.29
42621;BME280;28252;53.336;-6.298;2023-03-14T01:12:23;98964.44;;;21.41;90.19
42621;BME280;28252;53.336;-6.298;2023-03-14T01:12:58;98963.63;;;21.41;90.73
42621;BME280;28252;53.336;-6.298;2023-03-14T01:13:31;98969.03;;;21.41;90.91
42621;BME280;28252;53.336;-6.298;2023-03-14T01:14:07;98967.34;;;21.40;90.82
42621;BME280;28252;53.336;-6.298;2023-03-14T01:14:41;98973.63;;;21.40;90.41
42621;BME280;28252;53.336;-6.298;2023-03-14T01:15:12;98966.53;;;21.39;90.40
42621;BME280;28252;53.336;-6.298;2023-03-14T01:15:45;98976.78;;;21.37;90.48
42621;BME280;28252;53.336;-6.298;2023-03-14T01:16:17;98975.69;;;21.38;90.18
42621;BME280;28252;53.336;-6.298;2023-03-14T01:16:49;98974.88;;;21.38;90.70
42621;BME280;28252;53.336;-6.298;2023-03-14T01:17:20;98981.13;;;21.38;90.25
42621;BME280;28252;53.336;-6.298;2023-03-14T01:17:53;98975.94;;;21.37;90.35
42621;BME280;28252;53.336;-6.298;2023-03-14T01:18:29;98977.81;;;21.36;90.54
42621;BME280;28252;53.336;-6.298;2023-03-14T01:19:03;98975.31;;;21.35;90.60
42621;BME280;28252;53.336;-6.298;2023-03-14T01:19:38;98979.91;;;21.34;90.87
42621;BME280;28252;53.336;-6.298;2023-03-14T01:20:12;98979.91;;;21.34;90.66
42621;BME280;28252;53.336;-6.298;2023-03-14T01:20:46;98976.59;;;21.32;90.29
42621;BME280;28252;53.336;-6.298;2023-03-14T01:21:23;98982.84;;;21.33;90.79
42621;BME280;28252;53.336;-6.298;2023-03-14T01:21:55;98982.84;;;21.33;90.63
42621;BME280;28252;53.336;-6.298;2023-03-14T01:22:26;98984.72;;;21.32;90.89
42621;BME280;28252;53.336;-6.298;2023-03-14T01:22:59;98992.84;;;21.32;90.67
42621;BME280;28252;53.336;-6.298;2023-03-14T01:23:34;98996.59;;;21.31;90.79
42621;BME280;28252;53.336;-6.298;2023-03-14T01:24:10;98985.75;;;21.31;90.90
42621;BME280;28252;53.336;-6.298;2023-03-14T01:24:44;98985.75;;;21.31;90.69
42621;BME280;28252;53.336;-6.298;2023-03-14T01:25:21;98989.53;;;21.30;90.99
42621;BME280;28252;53.336;-6.298;2023-03-14T01:25:55;99000.38;;;21.30;91.07
42621;BME280;28252;53.336;-6.298;2023-03-14T01:26:29;99000.38;;;21.30;90.72
42621;BME280;28252;53.336;-6.298;2023-03-14T01:27:03;98999.50;;;21.30;90.51
42621;BME280;28252;53.336;-6.298;2023-03-14T01:27:34;99008.72;;;21.29;90.87
42621;BME280;28252;53.336;-6.298;2023-03-14T01:28:05;99007.03;;;21.27;90.75
42621;BME280;28252;53.336;-6.298;2023-03-14T01:28:43;99009.97;;;21.26;90.96
42621;BME280;28252;53.336;-6.298;2023-03-14T01:29:19;99008.91;;;21.27;90.86
42621;BME280;28252;53.336;-6.298;2023-03-14T01:29:53;99013.47;;;21.26;90.65
42621;BME280;28252;53.336;-6.298;2023-03-14T01:30:27;99020.78;;;21.26;90.85
42621;BME280;28252;53.336;-6.298;2023-03-14T01:31:09;99017.47;;;21.24;91.01
42621;BME280;28252;53.336;-6.298;2023-03-14T01:31:47;99022.88;;;21.24;90.73
42621;BME280;28252;53.336;-6.298;2023-03-14T01:32:25;99021.22;;;21.23;90.87
42621;BME280;28252;53.336;-6.298;2023-03-14T01:32:58;99025.00;;;21.22;90.55
42621;BME280;28252;53.336;-6.298;2023-03-14T01:33:34;99028.72;;;21.21;90.65
42621;BME280;28252;53.336;-6.298;2023-03-14T01:34:12;99034.16;;;21.21;90.93
42621;BME280;28252;53.336;-6.298;2023-03-14T01:34:46;99033.31;;;21.20;90.78
42621;BME280;28252;53.336;-6.298;2023-03-14T01:35:20;99036.03;;;21.20;90.84
42621;BME280;28252;53.336;-6.298;2023-03-14T01:35:56;99039.78;;;21.19;90.70
42621;BME280;28252;53.336;-6.298;2023-03-14T01:36:31;99034.56;;;21.18;91.01
42621;BME280;28252;53.336;-6.298;2023-03-14T01:37:05;99040.00;;;21.18;90.97
42621;BME280;28252;53.336;-6.298;2023-03-14T01:37:40;99038.34;;;21.17;91.23
42621;BME280;28252;53.336;-6.298;2023-03-14T01:38:18;99052.91;;;21.16;91.32
42621;BME280;28252;53.336;-6.298;2023-03-14T01:38:55;99052.91;;;21.16;90.88
42621;BME280;28252;53.336;-6.298;2023-03-14T01:39:30;99057.50;;;21.15;90.92
42621;BME280;28252;53.336;-6.298;2023-03-14T01:40:01;99059.41;;;21.15;91.06
42621;BME280;28252;53.336;-6.298;2023-03-14T01:40:45;99067.53;;;21.15;91.07
42621;BME280;28252;53.336;-6.298;2023-03-14T01:41:18;99066.66;;;21.14;91.18
42621;BME280;28252;53.336;-6.298;2023-03-14T01:41:54;99070.44;;;21.13;91.13
42621;BME280;28252;53.336;-6.298;2023-03-14T01:42:27;99071.25;;;21.14;91.12
42621;BME280;28252;53.336;-6.298;2023-03-14T01:43:12;99068.78;;;21.12;91.24
42621;BME280;28252;53.336;-6.298;2023-03-14T01:46:19;99083.59;;;21.10;90.90
42621;BME280;28252;53.336;-6.298;2023-03-14T01:46:53;99079.19;;;21.08;90.76
42621;BME280;28252;53.336;-6.298;2023-03-14T01:47:26;99090.84;;;21.09;90.64
42621;BME280;28252;53.336;-6.298;2023-03-14T01:48:05;99094.63;;;21.08;90.98
42621;BME280;28252;53.336;-6.298;2023-03-14T01:49:20;99089.22;;;21.08;91.00
42621;BME280;28252;53.336;-6.298;2023-03-14T01:49:35;99092.13;;;21.06;91.25
42621;BME280;28252;53.336;-6.298;2023-03-14T01:50:16;99093.97;;;21.06;90.59
42621;BME280;28252;53.336;-6.298;2023-03-14T01:50:49;99104.81;;;21.06;90.70
42621;BME280;28252;53.336;-6.298;2023-03-14T01:51:34;99109.41;;;21.05;91.09
42621;BME280;28252;53.336;-6.298;2023-03-14T01:52:44;99110.47;;;21.04;91.07
42621;BME280;28252;53.336;-6.298;2023-03-14T01:53:21;99114.22;;;21.03;91.57
42621;BME280;28252;53.336;-6.298;2023-03-14T01:54:34;99117.94;;;21.02;91.09
42621;BME280;28252;53.336;-6.298;2023-03-14T01:55:02;99127.13;;;21.01;91.05
42621;BME280;28252;53.336;-6.298;2023-03-14T01:55:39;99132.53;;;21.01;91.00
42621;BME280;28252;53.336;-6.298;2023-03-14T01:56:13;99131.69;;;21.01;91.04
42621;BME280;28252;53.336;-6.298;2023-03-14T01:56:52;99123.78;;;20.99;90.87
42621;BME280;28252;53.336;-6.298;2023-03-14T01:57:28;99138.16;;;21.00;91.09
42621;BME280;28252;53.336;-6.298;2023-03-14T01:58:03;99130.03;;;21.00;91.02
42621;BME280;28252;53.336;-6.298;2023-03-14T01:58:40;99132.97;;;20.98;90.85
42621;BME280;28252;53.336;-6.298;2023-03-14T01:59:19;99134.84;;;20.98;91.17
42621;BME280;28252;53.336;-6.298;2023-03-14T02:00:07;99140.03;;;20.99;91.08
42621;BME280;28252;53.336;-6.298;2023-03-14T02:00:45;99142.97;;;20.98;90.99
42621;BME280;28252;53.336;-6.298;2023-03-14T02:01:26;99142.13;;;20.97;91.05
42621;BME280;28252;53.336;-6.298;2023-03-14T02:01:57;99144.00;;;20.97;91.15
42621;BME280;28252;53.336;-6.298;2023-03-14T02:02:36;99149.63;;;20.95;91.15
42621;BME280;28252;53.336;-6.298;2023-03-14T02:03:14;99155.03;;;20.95;91.44
42621;BME280;28252;53.336;-6.298;2023-03-14T02:03:50;99156.06;;;20.94;91.11
42621;BME280;28252;53.336;-6.298;2023-03-14T02:04:26;99153.38;;;20.94;91.12
42621;BME280;28252;53.336;-6.298;2023-03-14T02:04:59;99162.53;;;20.93;91.36
42621;BME280;28252;53.336;-6.298;2023-03-14T02:05:37;99157.94;;;20.94;91.60
42621;BME280;28252;53.336;-6.298;2023-03-14T02:06:14;99155.47;;;20.92;91.35
42621;BME280;28252;53.336;-6.298;2023-03-14T02:06:50;99155.47;;;20.92;91.60
42621;BME280;28252;53.336;-6.298;2023-03-14T02:07:29;99161.94;;;20.91;91.23
42621;BME280;28252;53.336;-6.298;2023-03-14T02:08:14;99166.50;;;20.90;91.01
42621;BME280;28252;53.336;-6.298;2023-03-14T02:08:52;99173.78;;;20.90;91.15
42621;BME280;28252;53.336;-6.298;2023-03-14T02:09:34;99173.78;;;20.90;91.17
42621;BME280;28252;53.336;-6.298;2023-03-14T02:10:12;99171.28;;;20.88;91.48
42621;BME280;28252;53.336;-6.298;2023-03-14T02:10:47;99168.59;;;20.88;91.32
42621;BME280;28252;53.336;-6.298;2023-03-14T02:11:22;99178.59;;;20.88;91.28
42621;BME280;28252;53.336;-6.298;2023-03-14T02:12:10;99170.47;;;20.88;91.15
42621;BME280;28252;53.336;-6.298;2023-03-14T02:12:55;99178.78;;;20.86;91.17
42621;BME280;28252;53.336;-6.298;2023-03-14T02:13:38;99180.47;;;20.87;91.63
42621;BME280;28252;53.336;-6.298;2023-03-14T02:14:28;99185.25;;;20.85;91.08
42621;BME280;28252;53.336;-6.298;2023-03-14T02:15:23;99186.09;;;20.86;91.19
42621;BME280;28252;53.336;-6.298;2023-03-14T02:16:02;99192.53;;;20.85;91.24
42621;BME280;28252;53.336;-6.298;2023-03-14T02:16:43;99189.00;;;20.84;91.08
42621;BME280;28252;53.336;-6.298;2023-03-14T02:17:34;99197.13;;;20.84;90.85
42621;BME280;28252;53.336;-6.298;2023-03-14T02:18:25;99190.03;;;20.83;91.38
42621;BME280;28252;53.336;-6.298;2023-03-14T02:19:20;99200.03;;;20.83;91.00
42621;BME280;28252;53.336;-6.298;2023-03-14T02:22:15;99203.16;;;20.80;91.26
42621;BME280;28252;53.336;-6.298;2023-03-14T02:23:03;99201.47;;;20.79;91.13
42621;BME280;28252;53.336;-6.298;2023-03-14T02:24:32;99202.53;;;20.78;91.23
42621;BME280;28252;53.336;-6.298;2023-03-14T02:25:15;99207.97;;;20.78;91.41
42621;BME280;28252;53.336;-6.298;2023-03-14T02:27:26;99217.09;;;20.77;91.51
42621;BME280;28252;53.336;-6.298;2023-03-14T02:27:52;99220.00;;;20.75;91.03
42621;BME280;28252;53.336;-6.298;2023-03-14T02:28:26;99213.78;;;20.75;91.21
42621;BME280;28252;53.336;-6.298;2023-03-14T02:29:03;99219.19;;;20.75;91.27
42621;BME280;28252;53.336;-6.298;2023-03-14T02:29:39;99218.38;;;20.74;90.86
42621;BME280;28252;53.336;-6.298;2023-03-14T02:30:13;99220.44;;;20.72;91.38
42621;BME280;28252;53.336;-6.298;2023-03-14T02:30:46;99222.94;;;20.74;91.15
42621;BME280;28252;53.336;-6.298;2023-03-14T02:31:19;99221.28;;;20.73;91.20
42621;BME280;28252;53.336;-6.298;2023-03-14T02:31:54;99219.59;;;20.71;91.00
42621;BME280;28252;53.336;-6.298;2023-03-14T02:32:26;99232.31;;;20.71;91.51
42621;BME280;28252;53.336;-6.298;2023-03-14T02:33:12;99226.91;;;20.71;91.09
42621;BME280;28252;53.336;-6.298;2023-03-14T02:33:50;99232.53;;;20.69;90.89
42621;BME280;28252;53.336;-6.298;2023-03-14T02:34:21;99234.19;;;20.70;91.28
42621;BME280;28252;53.336;-6.298;2023-03-14T02:34:56;99237.94;;;20.69;91.30
42621;BME280;28252;53.336;-6.298;2023-03-14T02:35:35;99236.25;;;20.68;91.02
42621;BME280;28252;53.336;-6.298;2023-03-14T02:36:11;99240.00;;;20.67;91.42
42621;BME280;28252;53.336;-6.298;2023-03-14T02:36:50;99248.13;;;20.67;91.16
42621;BME280;28252;53.336;-6.298;2023-03-14T02:37:26;99244.56;;;20.67;91.61
42621;BME280;28252;53.336;-6.298;2023-03-14T02:38:47;99243.75;;;20.66;91.64
42621;BME280;28252;53.336;-6.298;2023-03-14T02:39:36;99248.34;;;20.66;91.45
42621;BME280;28252;53.336;-6.298;2023-03-14T02:40:11;99253.75;;;20.66;91.38
42621;BME280;28252;53.336;-6.298;2023-03-14T02:40:51;99257.28;;;20.66;91.77
42621;BME280;28252;53.336;-6.298;2023-03-14T02:41:28;99258.34;;;20.65;91.42
42621;BME280;28252;53.336;-6.298;2023-03-14T02:42:08;99262.06;;;20.64;92.02
42621;BME280;28252;53.336;-6.298;2023-03-14T02:42:42;99263.09;;;20.63;91.42
42621;BME280;28252;53.336;-6.298;2023-03-14T02:43:16;99264.97;;;20.63;91.67
42621;BME280;28252;53.336;-6.298;2023-03-14T02:43:55;99261.25;;;20.64;92.10
42621;BME280;28252;53.336;-6.298;2023-03-14T02:44:26;99251.63;;;20.61;91.82
42621;BME280;28252;53.336;-6.298;2023-03-14T02:45:01;99268.69;;;20.62;91.66
42621;BME280;28252;53.336;-6.298;2023-03-14T02:46:00;99266.22;;;20.60;91.75
42621;BME280;28252;53.336;-6.298;2023-03-14T02:46:35;99257.03;;;20.61;91.85
42621;BME280;28252;53.336;-6.298;2023-03-14T02:47:08;99249.97;;;20.60;91.79
42621;BME280;28252;53.336;-6.298;2023-03-14T02:47:46;99249.97;;;20.60;91.72
42621;BME280;28252;53.336;-6.298;2023-03-14T02:48:29;99246.41;;;20.60;91.82
42621;BME280;28252;53.336;-6.298;2023-03-14T02:52:51;99228.97;;;20.56;92.23
42621;BME280;28252;53.336;-6.298;2023-03-14T02:53:29;99227.06;;;20.56;91.94
42621;BME280;28252;53.336;-6.298;2023-03-14T02:54:10;99227.28;;;20.55;91.94
42621;BME280;28252;53.336;-6.298;2023-03-14T02:54:44;99225.63;;;20.53;92.34
42621;BME280;28252;53.336;-6.298;2023-03-14T02:55:21;99224.56;;;20.55;91.69
42621;BME280;28252;53.336;-6.298;2023-03-14T02:55:52;99224.78;;;20.53;92.04
42621;BME280;28252;53.336;-6.298;2023-03-14T02:56:29;99238.31;;;20.53;92.37
42621;BME280;28252;53.336;-6.298;2023-03-14T02:57:00;99232.91;;;20.53;92.57
42621;BME280;28252;53.336;-6.298;2023-03-14T02:57:36;99237.47;;;20.52;92.29
42621;BME280;28252;53.336;-6.298;2023-03-14T02:58:12;99240.38;;;20.51;92.38
42621;BME280;28252;53.336;-6.298;2023-03-14T02:58:45;99243.91;;;20.51;92.16
42621;BME280;28252;53.336;-6.298;2023-03-14T02:59:30;99242.06;;;20.52;92.59
42621;BME280;28252;53.336;-6.298;2023-03-14T03:00:05;99240.38;;;20.51;92.47
42621;BME280;28252;53.336;-6.298;2023-03-14T03:00:44;99233.34;;;20.50;92.15
42621;BME280;28252;53.336;-6.298;2023-03-14T03:01:17;99233.34;;;20.50;92.30
42621;BME280;28252;53.336;-6.298;2023-03-14T03:01:50;99233.34;;;20.50;92.69
42621;BME280;28252;53.336;-6.298;2023-03-14T03:02:25;99220.84;;;20.49;92.75
42621;BME280;28252;53.336;-6.298;2023-03-14T03:03:01;99213.75;;;20.48;92.45
42621;BME280;28252;53.336;-6.298;2023-03-14T03:03:38;99219.16;;;20.48;92.40
42621;BME280;28252;53.336;-6.298;2023-03-14T03:04:13;99245.38;;;20.47;92.08
42621;BME280;28252;53.336;-6.298;2023-03-14T03:04:45;99239.97;;;20.47;92.38
42621;BME280;28252;53.336;-6.298;2023-03-14T03:05:18;99258.91;;;20.47;92.77
42621;BME280;28252;53.336;-6.298;2023-03-14T03:05:54;99266.19;;;20.47;92.65
42621;BME280;28252;53.336;-6.298;2023-03-14T03:06:26;99268.03;;;20.46;92.74
42621;BME280;28252;53.336;-6.298;2023-03-14T03:06:59;99271.59;;;20.47;92.84
42621;BME280;28252;53.336;-6.298;2023-03-14T03:07:37;99269.94;;;20.46;92.68
42621;BME280;28252;53.336;-6.298;2023-03-14T03:08:15;99279.94;;;20.45;92.99
42621;BME280;28252;53.336;-6.298;2023-03-14T03:08:46;99282.63;;;20.45;93.01
42621;BME280;28252;53.336;-6.298;2023-03-14T03:09:17;99281.78;;;20.45;92.93
42621;BME280;28252;53.336;-6.298;2023-03-14T03:09:52;99280.94;;;20.44;93.13
42621;BME280;28252;53.336;-6.298;2023-03-14T03:10:28;99284.47;;;20.45;92.83
42621;BME280;28252;53.336;-6.298;2023-03-14T03:11:03;99294.69;;;20.43;92.98
42621;BME280;28252;53.336;-6.298;2023-03-14T03:12:25;99297.38;;;20.43;92.65
42621;BME280;28252;53.336;-6.298;2023-03-14T03:12:58;99281.16;;;20.43;92.71
42621;BME280;28252;53.336;-6.298;2023-03-14T03:13:31;99290.13;;;20.43;92.94
42621;BME280;28252;53.336;-6.298;2023-03-14T03:14:09;99285.75;;;20.42;92.73
42621;BME280;28252;53.336;-6.298;2023-03-14T03:14:40;99279.50;;;20.42;93.03
42621;BME280;28252;53.336;-6.298;2023-03-14T03:15:11;99291.34;;;20.41;93.28
42621;BME280;28252;53.336;-6.298;2023-03-14T03:15:44;99308.41;;;20.41;93.16
42621;BME280;28252;53.336;-6.298;2023-03-14T03:16:20;99312.16;;;20.40;92.99
42621;BME280;28252;53.336;-6.298;2023-03-14T03:16:53;99314.00;;;20.40;93.36
42621;BME280;28252;53.336;-6.298;2023-03-14T03:17:25;99312.38;;;20.39;93.33
42621;BME280;28252;53.336;-6.298;2023-03-14T03:17:56;99310.47;;;20.39;93.32
42621;BME280;28252;53.336;-6.298;2023-03-14T03:18:32;99306.97;;;20.39;93.44
42621;BME280;28252;53.336;-6.298;2023-03-14T03:19:03;99298.03;;;20.38;93.03
42621;BME280;28252;53.336;-6.298;2023-03-14T03:19:39;99304.25;;;20.39;93.49
42621;BME280;28252;53.336;-6.298;2023-03-14T03:20:17;99318.78;;;20.38;93.54
42621;BME280;28252;53.336;-6.298;2023-03-14T03:20:50;99317.78;;;20.39;93.67
42621;BME280;28252;53.336;-6.298;2023-03-14T03:21:25;99317.78;;;20.39;93.45
42621;BME280;28252;53.336;-6.298;2023-03-14T03:21:56;99317.78;;;20.39;93.52
42621;BME280;28252;53.336;-6.298;2023-03-14T03:22:27;99320.69;;;20.37;93.35
42621;BME280;28252;53.336;-6.298;2023-03-14T03:23:03;99323.19;;;20.39;93.47
42621;BME280;28252;53.336;-6.298;2023-03-14T03:23:34;99321.50;;;20.38;93.73
42621;BME280;28252;53.336;-6.298;2023-03-14T03:24:10;99311.75;;;20.37;93.55
42621;BME280;28252;53.336;-6.298;2023-03-14T03:24:44;99315.28;;;20.37;93.89
42621;BME280;28252;53.336;-6.298;2023-03-14T03:25:17;99314.44;;;20.37;93.85
42621;BME280;28252;53.336;-6.298;2023-03-14T03:25:51;99310.88;;;20.36;93.71
42621;BME280;28252;53.336;-6.298;2023-03-14T03:26:26;99315.28;;;20.37;93.89
42621;BME280;28252;53.336;-6.298;2023-03-14T03:27:00;99323.59;;;20.36;93.95
42621;BME280;28252;53.336;-6.298;2023-03-14T03:27:34;99322.75;;;20.35;93.92
42621;BME280;28252;53.336;-6.298;2023-03-14T03:28:10;99322.75;;;20.35;93.70
42621;BME280;28252;53.336;-6.298;2023-03-14T03:28:46;99322.97;;;20.33;93.56
42621;BME280;28252;53.336;-6.298;2023-03-14T03:29:22;99340.00;;;20.34;94.08
42621;BME280;28252;53.336;-6.298;2023-03-14T03:29:53;99350.00;;;20.33;93.87
42621;BME280;28252;53.336;-6.298;2023-03-14T03:30:24;99356.44;;;20.32;93.79
42621;BME280;28252;53.336;-6.298;2023-03-14T03:30:55;99370.56;;;20.34;93.99
42621;BME280;28252;53.336;-6.298;2023-03-14T03:31:26;99377.03;;;20.33;94.00
42621;BME280;28252;53.336;-6.298;2023-03-14T03:31:57;99371.84;;;20.32;93.78
42621;BME280;28252;53.336;-6.298;2023-03-14T03:32:33;99373.72;;;20.31;94.65
42621;BME280;28252;53.336;-6.298;2023-03-14T03:33:08;99371.00;;;20.31;93.96
42621;BME280;28252;53.336;-6.298;2023-03-14T03:33:39;99371.00;;;20.31;94.19
42621;BME280;28252;53.336;-6.298;2023-03-14T03:34:13;99363.09;;;20.30;94.02
42621;BME280;28252;53.336;-6.298;2023-03-14T03:34:45;99363.91;;;20.30;93.94
42621;BME280;28252;53.336;-6.298;2023-03-14T03:35:16;99362.25;;;20.29;93.62
42621;BME280;28252;53.336;-6.298;2023-03-14T03:35:49;99363.91;;;20.30;93.94
42621;BME280;28252;53.336;-6.298;2023-03-14T03:36:34;99371.41;;;20.28;94.14
42621;BME280;28252;53.336;-6.298;2023-03-14T03:37:07;99371.41;;;20.28;93.95
42621;BME280;28252;53.336;-6.298;2023-03-14T03:37:45;99378.47;;;20.29;93.98
42621;BME280;28252;53.336;-6.298;2023-03-14T03:38:18;99382.22;;;20.28;94.05
42621;BME280;28252;53.336;-6.298;2023-03-14T03:38:52;99396.78;;;20.27;94.03
42621;BME280;28252;53.336;-6.298;2023-03-14T03:39:25;99405.94;;;20.26;94.13
42621;BME280;28252;53.336;-6.298;2023-03-14T03:40:02;99422.16;;;20.26;94.23
42621;BME280;28252;53.336;-6.298;2023-03-14T03:40:36;99420.47;;;20.25;93.99
42621;BME280;28252;53.336;-6.298;2023-03-14T03:41:10;99425.88;;;20.25;94.46
42621;BME280;28252;53.336;-6.298;2023-03-14T03:41:46;99429.59;;;20.24;94.11
42621;BME280;28252;53.336;-6.298;2023-03-14T03:42:18;99429.59;;;20.24;94.14
42621;BME280;28252;53.336;-6.298;2023-03-14T03:42:52;99439.41;;;20.25;94.39
42621;BME280;28252;53.336;-6.298;2023-03-14T03:43:25;99441.47;;;20.23;94.17
42621;BME280;28252;53.336;-6.298;2023-03-14T03:43:56;99437.94;;;20.23;93.96
42621;BME280;28252;53.336;-6.298;2023-03-14T03:44:35;99443.34;;;20.23;94.02
42621;BME280;28252;53.336;-6.298;2023-03-14T03:45:13;99446.06;;;20.23;94.31
42621;BME280;28252;53.336;-6.298;2023-03-14T03:45:55;99449.78;;;20.22;94.59
42621;BME280;28252;53.336;-6.298;2023-03-14T03:46:29;99448.09;;;20.21;94.32
42621;BME280;28252;53.336;-6.298;2023-03-14T03:47:02;99447.28;;;20.20;93.91
42621;BME280;28252;53.336;-6.298;2023-03-14T03:47:39;99439.16;;;20.20;94.16
42621;BME280;28252;53.336;-6.298;2023-03-14T03:48:14;99439.16;;;20.20;93.99
42621;BME280;28252;53.336;-6.298;2023-03-14T03:48:47;99430.44;;;20.18;93.72
42621;BME280;28252;53.336;-6.298;2023-03-14T03:49:18;99433.13;;;20.18;94.03
42621;BME280;28252;53.336;-6.298;2023-03-14T03:49:54;99433.13;;;20.18;93.88
42621;BME280;28252;53.336;-6.298;2023-03-14T03:50:29;99425.03;;;20.18;94.07
42621;BME280;28252;53.336;-6.298;2023-03-14T03:51:02;99423.34;;;20.17;94.36
42621;BME280;28252;53.336;-6.298;2023-03-14T03:51:36;99413.59;;;20.16;93.97
42621;BME280;28252;53.336;-6.298;2023-03-14T03:52:09;99424.19;;;20.18;93.82
42621;BME280;28252;53.336;-6.298;2023-03-14T03:52:45;99421.69;;;20.16;94.42
42621;BME280;28252;53.336;-6.298;2023-03-14T03:53:16;99415.44;;;20.15;94.08
42621;BME280;28252;53.336;-6.298;2023-03-14T03:53:51;99422.72;;;20.15;94.34
42621;BME280;28252;53.336;-6.298;2023-03-14T03:54:31;99419.19;;;20.14;94.31
42621;BME280;28252;53.336;-6.298;2023-03-14T03:55:07;99426.44;;;20.14;94.24
42621;BME280;28252;53.336;-6.298;2023-03-14T03:55:40;99422.09;;;20.13;94.07
42621;BME280;28252;53.336;-6.298;2023-03-14T03:56:13;99427.50;;;20.13;93.92
42621;BME280;28252;53.336;-6.298;2023-03-14T03:56:48;99439.13;;;20.13;93.95
42621;BME280;28252;53.336;-6.298;2023-03-14T03:57:19;99436.63;;;20.12;94.23
42621;BME280;28252;53.336;-6.298;2023-03-14T03:57:54;99443.91;;;20.11;94.24
42621;BME280;28252;53.336;-6.298;2023-03-14T03:58:28;99439.34;;;20.12;93.84
42621;BME280;28252;53.336;-6.298;2023-03-14T03:59:04;99447.44;;;20.12;93.90
42621;BME280;28252;53.336;-6.298;2023-03-14T03:59:37;99443.09;;;20.11;93.83
42621;BME280;28252;53.336;-6.298;2023-03-14T04:00:13;99445.78;;;20.11;93.81
42621;BME280;28252;53.336;-6.298;2023-03-14T04:00:49;99451.19;;;20.11;94.11
42621;BME280;28252;53.336;-6.298;2023-03-14T04:01:22;99456.59;;;20.11;94.02
42621;BME280;28252;53.336;-6.298;2023-03-14T04:01:56;99455.94;;;20.09;93.86
42621;BME280;28252;53.336;-6.298;2023-03-14T04:02:27;99458.66;;;20.09;93.92
42621;BME280;28252;53.336;-6.298;2023-03-14T04:02:58;99464.06;;;20.09;94.12
42621;BME280;28252;53.336;-6.298;2023-03-14T04:03:34;99468.63;;;20.08;94.19
42621;BME280;28252;53.336;-6.298;2023-03-14T04:04:06;99462.41;;;20.08;94.18
42621;BME280;28252;53.336;-6.298;2023-03-14T04:04:37;99465.31;;;20.06;94.30
42621;BME280;28252;53.336;-6.298;2023-03-14T04:05:09;99461.53;;;20.07;94.26
42621;BME280;28252;53.336;-6.298;2023-03-14T04:05:43;99458.84;;;20.07;93.93
42621;BME280;28252;53.336;-6.298;2023-03-14T04:06:15;99459.06;;;20.06;93.96
42621;BME280;28252;53.336;-6.298;2023-03-14T04:06:49;99455.31;;;20.07;93.74
42621;BME280;28252;53.336;-6.298;2023-03-14T04:07:25;99464.47;;;20.06;94.00
42621;BME280;28252;53.336;-6.298;2023-03-14T04:07:58;99469.88;;;20.06;93.88
42621;BME280;28252;53.336;-6.298;2023-03-14T04:08:31;99468.19;;;20.05;93.88
42621;BME280;28252;53.336;-6.298;2023-03-14T04:09:02;99479.00;;;20.05;93.56
42621;BME280;28252;53.336;-6.298;2023-03-14T04:10:05;99490.84;;;20.04;93.92
42621;BME280;28252;53.336;-6.298;2023-03-14T04:10:46;99497.31;;;20.03;93.61
42621;BME280;28252;53.336;-6.298;2023-03-14T04:11:26;99497.31;;;20.03;93.61
42621;BME280;28252;53.336;-6.298;2023-03-14T04:12:23;99501.84;;;20.02;93.73
42621;BME280;28252;53.336;-6.298;2023-03-14T04:13:09;99509.13;;;20.02;93.79
42621;BME280;28252;53.336;-6.298;2023-03-14T04:13:41;99514.75;;;20.00;93.78
42621;BME280;28252;53.336;-6.298;2023-03-14T04:14:15;99518.28;;;20.01;93.83
42621;BME280;28252;53.336;-6.298;2023-03-14T04:14:46;99515.59;;;20.01;94.06
42621;BME280;28252;53.336;-6.298;2023-03-14T04:15:27;99518.50;;;19.99;93.85
42621;BME280;28252;53.336;-6.298;2023-03-14T04:15:58;99523.91;;;19.99;93.53
42621;BME280;28252;53.336;-6.298;2023-03-14T04:16:34;99524.72;;;20.00;93.78
42621;BME280;28252;53.336;-6.298;2023-03-14T04:17:12;99532.19;;;19.98;93.88
42621;BME280;28252;53.336;-6.298;2023-03-14T04:17:43;99537.59;;;19.98;93.95
42621;BME280;28252;53.336;-6.298;2023-03-14T04:18:18;99531.34;;;19.97;93.80
42621;BME280;28252;53.336;-6.298;2023-03-14T04:18:52;99543.00;;;19.98;94.02
42621;BME280;28252;53.336;-6.298;2023-03-14T04:19:28;99540.50;;;19.96;93.63
42621;BME280;28252;53.336;-6.298;2023-03-14T04:20:07;99542.38;;;19.95;93.42
42621;BME280;28252;53.336;-6.298;2023-03-14T04:20:43;99550.47;;;19.95;93.82
42621;BME280;28252;53.336;-6.298;2023-03-14T04:21:20;99544.22;;;19.95;93.59
42621;BME280;28252;53.336;-6.298;2023-03-14T04:21:56;99547.13;;;19.93;93.59
42621;BME280;28252;53.336;-6.298;2023-03-14T04:22:30;99547.13;;;19.93;93.50
42621;BME280;28252;53.336;-6.298;2023-03-14T04:23:01;99540.06;;;19.92;93.85
42621;BME280;28252;53.336;-6.298;2023-03-14T04:23:39;99533.78;;;19.92;93.47
42621;BME280;28252;53.336;-6.298;2023-03-14T04:24:13;99539.19;;;19.92;93.92
42621;BME280;28252;53.336;-6.298;2023-03-14T04:24:47;99535.69;;;19.91;93.83